createdAt,value
2019-02-08T00:00:28.479Z,99817.70
2019-02-08T00:02:34.970Z,99819.47
2019-02-08T00:04:41.320Z,99818.59
2019-02-08T00:06:48.197Z,99823.86
2019-02-08T00:08:54.467Z,99829.05
2019-02-08T00:11:00.698Z,99825.42
2019-02-08T00:13:07.541Z,99824.74
2019-02-08T00:15:23.206Z,99828.50
2019-02-08T00:17:29.640Z,99829.29
2019-02-08T00:19:35.928Z,99834.08
2019-02-08T00:21:42.197Z,99829.56
2019-02-08T00:23:49.504Z,99832.16
2019-02-08T00:25:56.899Z,99832.98
2019-02-08T00:28:03.294Z,99827.44
2019-02-08T00:30:19.795Z,99830.30
2019-02-08T00:32:26.216Z,99840.16
2019-02-08T00:34:32.897Z,99837.41
2019-02-08T00:36:39.088Z,99840.97
2019-02-08T00:38:45.396Z,99845.84
2019-02-08T00:40:51.640Z,99844.34
2019-02-08T00:42:57.943Z,99843.70
2019-02-08T00:45:06.180Z,99850.88
2019-02-08T00:47:13.084Z,99844.28
2019-02-08T00:49:19.449Z,99842.99
2019-02-08T00:51:25.762Z,99844.39
2019-02-08T00:53:33.518Z,99837.96
2019-02-08T00:55:40.016Z,99843.71
2019-02-08T00:57:46.451Z,99843.09
2019-02-08T00:59:53.105Z,99841.73
2019-02-08T01:01:59.601Z,99841.73
2019-02-08T01:04:05.871Z,99845.77
2019-02-08T01:06:13.303Z,99834.57
2019-02-08T01:08:19.548Z,99848.19
2019-02-08T01:10:34.055Z,99838.47
2019-02-08T01:12:40.547Z,99844.88
2019-02-08T01:14:46.996Z,99850.77
2019-02-08T01:16:53.292Z,99845.97
2019-02-08T01:18:59.695Z,99845.97
2019-02-08T01:21:06.079Z,99845.97
2019-02-08T01:23:12.351Z,99845.28
2019-02-08T01:25:24.892Z,99841.86
2019-02-08T01:27:31.114Z,99846.28
2019-02-08T01:29:37.425Z,99846.75
2019-02-08T01:31:43.703Z,99846.82
2019-02-08T01:33:50.131Z,99845.11
2019-02-08T01:35:56.354Z,99851.81
2019-02-08T01:38:02.770Z,99848.50
2019-02-08T01:40:27.524Z,99849.52
2019-02-08T01:42:33.736Z,99850.48
2019-02-08T01:44:40.135Z,99855.64
2019-02-08T01:46:46.504Z,99849.13
2019-02-08T01:48:52.865Z,99845.77
2019-02-08T01:50:59.352Z,99848.02
2019-02-08T01:53:05.759Z,99848.29
2019-02-08T01:55:12.134Z,99847.43
2019-02-08T01:57:18.455Z,99847.09
2019-02-08T01:59:24.698Z,99840.23
2019-02-08T02:01:31.004Z,99843.78
2019-02-08T02:03:37.327Z,99848.65
2019-02-08T02:05:43.837Z,99849.13
2019-02-08T02:07:50.266Z,99847.69
2019-02-08T02:09:56.582Z,99848.17
2019-02-08T02:12:02.843Z,99852.91
2019-02-08T02:14:09.080Z,99845.63
2019-02-08T02:16:15.331Z,99846.81
2019-02-08T02:18:21.617Z,99850.17
2019-02-08T02:20:37.565Z,99851.48
2019-02-08T02:22:43.884Z,99857.16
2019-02-08T02:24:50.108Z,99857.89
2019-02-08T02:26:56.408Z,99856.69
2019-02-08T02:29:02.669Z,99861.20
2019-02-08T02:31:08.888Z,99856.53
2019-02-08T02:33:15.474Z,99861.67
2019-02-08T02:35:21.995Z,99864.69
2019-02-08T02:37:28.153Z,99862.70
2019-02-08T02:39:34.455Z,99860.78
2019-02-08T02:41:40.778Z,99868.73
2019-02-08T02:43:46.997Z,99870.44
2019-02-08T02:45:53.242Z,99867.84
2019-02-08T02:47:59.423Z,99865.30
2019-02-08T02:50:09.054Z,99858.85
2019-02-08T02:52:16.510Z,99857.14
2019-02-08T02:54:24.145Z,99866.28
2019-02-08T02:56:30.369Z,99864.16
2019-02-08T02:58:36.523Z,99868.06
2019-02-08T03:00:45.744Z,99872.80
2019-02-08T03:02:51.913Z,99868.86
2019-02-08T03:04:58.203Z,99870.31
2019-02-08T03:07:04.393Z,99873.27
2019-02-08T03:09:10.844Z,99874.00
2019-02-08T03:11:17.093Z,99883.21
2019-02-08T03:13:23.342Z,99884.58
2019-02-08T03:15:29.645Z,99882.04
2019-02-08T03:17:36.057Z,99890.74
2019-02-08T03:19:42.388Z,99890.74
2019-02-08T03:21:48.745Z,99887.25
2019-02-08T03:23:55.119Z,99884.58
2019-02-08T03:26:01.539Z,99888.14
2019-02-08T03:28:07.911Z,99882.04
2019-02-08T03:30:19.672Z,99885.13
2019-02-08T03:32:25.939Z,99896.71
2019-02-08T03:34:32.299Z,99894.36
2019-02-08T03:36:38.597Z,99895.19
2019-02-08T03:38:44.951Z,99900.34
2019-02-08T03:40:51.193Z,99890.80
2019-02-08T03:42:57.572Z,99898.27
2019-02-08T03:45:05.007Z,99897.03
2019-02-08T03:47:11.228Z,99898.05
2019-02-08T03:49:17.532Z,99898.95
2019-02-08T03:51:23.856Z,99900.28
2019-02-08T03:53:30.247Z,99895.45
2019-02-08T03:55:36.479Z,99895.06
2019-02-08T03:57:42.727Z,99895.55
2019-02-08T03:59:48.939Z,99898.62
2019-02-08T04:01:56.224Z,99896.84
2019-02-08T04:04:12.727Z,99898.62
2019-02-08T04:06:18.945Z,99900.53
2019-02-08T04:08:25.237Z,99901.77
2019-02-08T04:10:31.496Z,99907.05
2019-02-08T04:12:37.789Z,99906.22
2019-02-08T04:14:44.092Z,99908.83
2019-02-08T04:16:50.345Z,99907.05
2019-02-08T04:18:56.641Z,99905.39
2019-02-08T04:21:02.948Z,99904.92
2019-02-08T04:23:09.148Z,99909.78
2019-02-08T04:25:17.579Z,99909.44
2019-02-08T04:27:23.866Z,99913.75
2019-02-08T04:29:30.041Z,99916.52
2019-02-08T04:31:36.347Z,99917.69
2019-02-08T04:33:42.705Z,99922.14
2019-02-08T04:35:49.111Z,99916.17
2019-02-08T04:37:55.271Z,99915.06
2019-02-08T04:40:01.487Z,99924.11
2019-02-08T04:42:07.720Z,99918.78
2019-02-08T04:44:13.949Z,99918.91
2019-02-08T04:46:20.164Z,99919.80
2019-02-08T04:48:26.349Z,99928.02
2019-02-08T04:50:32.706Z,99928.50
2019-02-08T04:52:38.954Z,99934.60
2019-02-08T04:54:45.202Z,99928.50
2019-02-08T04:56:51.496Z,99932.34
2019-02-08T04:58:57.736Z,99933.17
2019-02-08T05:01:04.042Z,99927.96
2019-02-08T05:03:10.345Z,99930.22
2019-02-08T05:05:16.499Z,99932.28
2019-02-08T05:07:22.677Z,99930.91
2019-02-08T05:09:28.827Z,99938.31
2019-02-08T05:11:34.980Z,99936.19
2019-02-08T05:13:41.224Z,99943.53
2019-02-08T05:15:47.441Z,99946.96
2019-02-08T05:17:53.673Z,99944.01
2019-02-08T05:19:59.854Z,99947.56
2019-02-08T05:22:06.906Z,99950.17
2019-02-08T05:24:13.201Z,99954.56
2019-02-08T05:26:19.397Z,99960.88
2019-02-08T05:28:25.622Z,99961.70
2019-02-08T05:30:36.379Z,99960.95
2019-02-08T05:32:42.565Z,99969.94
2019-02-08T05:34:48.807Z,99968.88
2019-02-08T05:36:55.030Z,99969.39
2019-02-08T05:39:01.345Z,99967.10
2019-02-08T05:41:09.151Z,99966.50
2019-02-08T05:43:15.326Z,99973.84
2019-02-08T05:45:26.107Z,99975.39
2019-02-08T05:47:32.247Z,99969.87
2019-02-08T05:49:38.409Z,99979.41
2019-02-08T05:51:44.585Z,99973.48
2019-02-08T05:53:50.881Z,99976.31
2019-02-08T05:55:57.095Z,99968.88
2019-02-08T05:58:03.277Z,99976.31
2019-02-08T06:00:17.080Z,99973.50
2019-02-08T06:02:23.297Z,99976.58
2019-02-08T06:04:29.497Z,99987.70
2019-02-08T06:06:35.710Z,99984.81
2019-02-08T06:08:41.873Z,99985.70
2019-02-08T06:10:48.064Z,99991.32
2019-02-08T06:12:54.299Z,99989.12
2019-02-08T06:15:01.610Z,99989.20
2019-02-08T06:17:07.868Z,99988.91
2019-02-08T06:19:14.091Z,99994.54
2019-02-08T06:21:20.285Z,99994.82
2019-02-08T06:23:26.525Z,99998.31
2019-02-08T06:25:32.691Z,100008.69
2019-02-08T06:27:38.861Z,100012.45
2019-02-08T06:29:45.109Z,100007.10
2019-02-08T06:31:51.412Z,100018.77
2019-02-08T06:33:57.729Z,100022.05
2019-02-08T06:36:03.972Z,100023.70
2019-02-08T06:38:11.203Z,100029.87
2019-02-08T06:40:23.718Z,100028.43
2019-02-08T06:42:29.979Z,100034.59
2019-02-08T06:44:36.141Z,100038.80
2019-02-08T06:46:42.387Z,100044.96
2019-02-08T06:48:48.658Z,100049.70
2019-02-08T06:50:54.963Z,100049.10
2019-02-08T06:53:01.265Z,100054.73
2019-02-08T06:55:10.851Z,100050.37
2019-02-08T06:57:18.354Z,100045.87
2019-02-08T06:59:26.218Z,100049.23
2019-02-08T07:01:43.194Z,100049.63
2019-02-08T07:03:57.107Z,100057.00
2019-02-08T07:06:04.955Z,100056.30
2019-02-08T07:08:17.022Z,100060.41
2019-02-08T07:10:34.122Z,100064.48
2019-02-08T07:12:41.969Z,100067.77
2019-02-08T07:14:52.855Z,100072.56
2019-02-08T07:17:01.719Z,100066.74
2019-02-08T07:19:09.664Z,100073.65
2019-02-08T07:21:32.834Z,100069.26
2019-02-08T07:23:56.919Z,100076.26
2019-02-08T07:29:06.079Z,100085.04
2019-02-08T07:37:00.749Z,100092.80
2019-02-08T07:39:10.885Z,100096.66
2019-02-08T07:41:34.652Z,100099.55
2019-02-08T07:46:09.517Z,100094.34
2019-02-08T07:48:29.668Z,100097.05
2019-02-08T07:50:40.641Z,100096.64
2019-02-08T07:52:48.557Z,100098.25
2019-02-08T07:54:59.474Z,100098.25
2019-02-08T07:57:07.286Z,100099.41
2019-02-08T07:59:15.205Z,100103.98
2019-02-08T08:01:35.253Z,100103.66
2019-02-08T08:03:52.600Z,100099.09
2019-02-08T08:08:47.378Z,100105.30
2019-02-08T08:10:57.829Z,100109.55
2019-02-08T08:13:05.620Z,100114.69
2019-02-08T08:15:17.313Z,100119.10
2019-02-08T08:17:36.919Z,100122.27
2019-02-08T08:20:00.711Z,100116.16
2019-02-08T08:22:15.559Z,100120.67
2019-02-08T08:24:37.341Z,100123.13
2019-02-08T08:26:45.207Z,100124.70
2019-02-08T08:29:06.552Z,100116.53
2019-02-08T08:31:17.239Z,100113.79
2019-02-08T08:33:34.313Z,100120.10
2019-02-08T08:35:57.359Z,100120.58
2019-02-08T08:38:43.068Z,100122.24
2019-02-08T08:41:21.121Z,100122.83
2019-02-08T08:43:37.734Z,100124.89
2019-02-08T08:46:32.398Z,100118.84
2019-02-08T08:49:16.356Z,100122.83
2019-02-08T08:51:45.456Z,100124.91
2019-02-08T08:54:14.142Z,100121.28
2019-02-08T08:56:42.458Z,100116.51
2019-02-08T08:59:08.362Z,100116.13
2019-02-08T09:01:48.730Z,100117.06
2019-02-08T09:04:30.921Z,100115.13
2019-02-08T09:06:56.836Z,100119.45
2019-02-08T09:09:47.235Z,100110.53
2019-02-08T09:12:16.049Z,100117.62
2019-02-08T09:14:54.221Z,100119.56
2019-02-08T09:17:44.221Z,100120.66
2019-02-08T09:20:10.066Z,100124.41
2019-02-08T09:22:52.651Z,100127.89
2019-02-08T09:25:15.783Z,100129.56
2019-02-08T09:27:38.679Z,100131.23
2019-02-08T09:30:25.986Z,100132.37
2019-02-08T09:33:17.869Z,100131.47
2019-02-08T09:36:11.413Z,100132.42
2019-02-08T09:38:58.599Z,100140.09
2019-02-08T09:41:29.124Z,100141.78
2019-02-08T09:43:59.399Z,100144.27
2019-02-08T09:46:32.881Z,100130.98
2019-02-08T09:49:33.479Z,100133.28
2019-02-08T09:52:05.748Z,100139.99
2019-02-08T09:54:19.782Z,100141.84
2019-02-08T09:56:47.140Z,100153.73
2019-02-08T09:59:22.326Z,100152.02
2019-02-08T10:02:14.123Z,100152.25
2019-02-08T10:05:02.600Z,100147.23
2019-02-08T10:07:40.784Z,100142.52
2019-02-08T10:09:57.535Z,100138.22
2019-02-08T10:12:08.665Z,100139.47
2019-02-08T10:14:44.939Z,100144.16
2019-02-08T10:17:30.774Z,100137.20
2019-02-08T10:20:01.258Z,100136.69
2019-02-08T10:22:33.487Z,100145.62
2019-02-08T10:25:27.055Z,100143.20
2019-02-08T10:27:58.857Z,100147.52
2019-02-08T10:30:52.123Z,100143.31
2019-02-08T10:33:28.777Z,100138.87
2019-02-08T10:36:15.457Z,100143.00
2019-02-08T10:38:42.997Z,100134.34
2019-02-08T10:41:30.495Z,100133.08
2019-02-08T10:44:09.889Z,100131.55
2019-02-08T10:46:54.322Z,100131.73
2019-02-08T10:49:17.174Z,100137.95
2019-02-08T10:51:55.558Z,100136.81
2019-02-08T10:54:47.307Z,100124.25
2019-02-08T10:57:13.154Z,100124.25
2019-02-08T10:59:59.263Z,100121.28
2019-02-08T11:02:45.856Z,100122.77
2019-02-08T11:05:22.331Z,100121.09
2019-02-08T11:08:09.641Z,100125.13
2019-02-08T11:10:38.343Z,100118.43
2019-02-08T11:13:15.837Z,100117.30
2019-02-08T11:16:04.177Z,100115.92
2019-02-08T11:18:43.017Z,100117.25
2019-02-08T11:20:49.174Z,100115.68
2019-02-08T11:22:55.434Z,100120.44
2019-02-08T11:25:01.679Z,100116.70
2019-02-08T11:27:07.834Z,100121.98
2019-02-08T11:29:14.033Z,100124.28
2019-02-08T11:31:20.340Z,100124.21
2019-02-08T11:33:26.500Z,100119.80
2019-02-08T11:35:32.705Z,100115.98
2019-02-08T11:37:39.062Z,100118.96
2019-02-08T11:39:45.294Z,100124.38
2019-02-08T11:41:51.560Z,100111.50
2019-02-08T11:43:57.724Z,100115.61
2019-02-08T11:46:03.953Z,100126.40
2019-02-08T11:48:10.354Z,100125.31
2019-02-08T11:50:22.803Z,100123.69
2019-02-08T11:52:28.971Z,100124.08
2019-02-08T11:54:35.220Z,100130.84
2019-02-08T11:56:41.440Z,100128.09
2019-02-08T11:58:47.713Z,100121.43
2019-02-08T12:00:55.611Z,100120.25
2019-02-08T12:03:01.898Z,100122.55
2019-02-08T12:05:08.751Z,100117.63
2019-02-08T12:07:15.059Z,100120.42
2019-02-08T12:09:21.293Z,100114.74
2019-02-08T12:11:27.610Z,100115.17
2019-02-08T12:13:33.798Z,100113.89
2019-02-08T12:15:40.035Z,100108.80
2019-02-08T12:17:46.192Z,100112.27
2019-02-08T12:19:52.458Z,100115.25
2019-02-08T12:21:58.616Z,100120.66
2019-02-08T12:24:05.682Z,100117.61
2019-02-08T12:26:11.886Z,100113.59
2019-02-08T12:28:18.126Z,100114.50
2019-02-08T12:30:37.379Z,100112.31
2019-02-08T12:32:43.624Z,100116.05
2019-02-08T12:34:49.999Z,100120.77
2019-02-08T12:36:56.165Z,100113.52
2019-02-08T12:39:02.449Z,100109.61
2019-02-08T12:41:10.307Z,100111.27
2019-02-08T12:43:17.813Z,100108.72
2019-02-08T12:45:24.166Z,100110.34
2019-02-08T12:47:30.332Z,100107.98
2019-02-08T12:49:36.627Z,100107.45
2019-02-08T12:51:42.868Z,100115.98
2019-02-08T12:53:49.093Z,100109.48
2019-02-08T12:55:55.392Z,100104.43
2019-02-08T12:58:01.778Z,100109.49
2019-02-08T13:00:21.755Z,100106.16
2019-02-08T13:02:28.129Z,100101.84
2019-02-08T13:04:34.443Z,100104.08
2019-02-08T13:06:40.673Z,100106.52
2019-02-08T13:08:46.966Z,100102.84
2019-02-08T13:10:53.236Z,100106.86
2019-02-08T13:12:59.406Z,100106.28
2019-02-08T13:15:10.342Z,100110.30
2019-02-08T13:17:16.534Z,100112.81
2019-02-08T13:19:22.761Z,100111.11
2019-02-08T13:21:28.983Z,100110.26
2019-02-08T13:23:35.257Z,100115.48
2019-02-08T13:25:41.493Z,100110.30
2019-02-08T13:27:48.736Z,100109.03
2019-02-08T13:29:54.989Z,100108.61
2019-02-08T13:32:02.235Z,100109.88
2019-02-08T13:34:08.394Z,100109.80
2019-02-08T13:36:14.658Z,100112.19
2019-02-08T13:38:20.811Z,100107.95
2019-02-08T13:40:31.360Z,100112.63
2019-02-08T13:42:37.547Z,100117.14
2019-02-08T13:44:43.783Z,100113.20
2019-02-08T13:46:50.103Z,100109.53
2019-02-08T13:48:56.553Z,100107.67
2019-02-08T13:51:02.702Z,100106.78
2019-02-08T13:53:08.946Z,100108.02
2019-02-08T13:55:19.408Z,100099.62
2019-02-08T13:57:25.798Z,100108.32
2019-02-08T13:59:32.020Z,100104.84
2019-02-08T14:01:38.287Z,100099.13
2019-02-08T14:03:44.443Z,100104.64
2019-02-08T14:05:50.594Z,100096.30
2019-02-08T14:07:56.922Z,100102.66
2019-02-08T14:10:03.272Z,100105.28
2019-02-08T14:12:09.568Z,100098.13
2019-02-08T14:14:15.807Z,100102.48
2019-02-08T14:16:21.981Z,100106.85
2019-02-08T14:18:28.412Z,100113.84
2019-02-08T14:20:34.655Z,100111.67
2019-02-08T14:22:40.958Z,100114.77
2019-02-08T14:24:47.497Z,100116.33
2019-02-08T14:26:53.826Z,100116.16
2019-02-08T14:29:00.040Z,100109.94
2019-02-08T14:31:06.224Z,100114.67
2019-02-08T14:33:12.615Z,100111.03
2019-02-08T14:35:18.925Z,100112.12
2019-02-08T14:37:25.224Z,100118.63
2019-02-08T14:39:31.519Z,100118.03
2019-02-08T14:41:37.755Z,100121.45
2019-02-08T14:43:44.047Z,100123.44
2019-02-08T14:45:50.372Z,100124.33
2019-02-08T14:47:56.602Z,100121.19
2019-02-08T14:50:02.765Z,100118.90
2019-02-08T14:52:09.032Z,100123.62
2019-02-08T14:54:15.319Z,100124.80
2019-02-08T14:56:21.608Z,100120.72
2019-02-08T14:58:28.686Z,100117.59
2019-02-08T15:00:36.615Z,100129.05
2019-02-08T15:02:43.186Z,100122.96
2019-02-08T15:04:49.588Z,100123.70
2019-02-08T15:06:55.873Z,100121.78
2019-02-08T15:09:02.113Z,100113.82
2019-02-08T15:11:10.054Z,100115.09
2019-02-08T15:13:16.225Z,100118.41
2019-02-08T15:15:22.520Z,100119.67
2019-02-08T15:17:28.916Z,100116.48
2019-02-08T15:19:35.216Z,100107.66
2019-02-08T15:21:41.613Z,100113.80
2019-02-08T15:23:48.007Z,100112.19
2019-02-08T15:25:54.304Z,100114.44
2019-02-08T15:28:00.762Z,100107.30
2019-02-08T15:30:18.467Z,100112.59
2019-02-08T15:32:25.019Z,100115.48
2019-02-08T15:34:31.322Z,100120.57
2019-02-08T15:36:37.594Z,100121.75
2019-02-08T15:38:43.992Z,100119.39
2019-02-08T15:40:53.659Z,100124.66
2019-02-08T15:43:00.040Z,100124.84
2019-02-08T15:45:14.123Z,100116.95
2019-02-08T15:47:22.052Z,100120.55
2019-02-08T15:49:28.526Z,100120.15
2019-02-08T15:51:36.519Z,100120.53
2019-02-08T15:53:43.908Z,100121.98
2019-02-08T15:56:08.142Z,100127.74
2019-02-08T15:58:15.753Z,100125.32
2019-02-08T16:00:28.522Z,100132.56
2019-02-08T16:02:34.982Z,100127.34
2019-02-08T16:04:41.346Z,100123.19
2019-02-08T16:06:47.800Z,100119.63
2019-02-08T16:08:54.404Z,100122.66
2019-02-08T16:11:00.775Z,100122.64
2019-02-08T16:13:08.633Z,100129.20
2019-02-08T16:15:19.657Z,100127.70
2019-02-08T16:17:25.950Z,100132.56
2019-02-08T16:19:32.181Z,100129.13
2019-02-08T16:21:38.634Z,100136.11
2019-02-08T16:23:44.925Z,100123.97
2019-02-08T16:25:51.297Z,100134.28
2019-02-08T16:27:57.544Z,100135.52
2019-02-08T16:30:06.004Z,100137.33
2019-02-08T16:32:12.405Z,100139.97
2019-02-08T16:34:18.802Z,100134.16
2019-02-08T16:36:25.032Z,100132.09
2019-02-08T16:38:32.263Z,100140.08
2019-02-08T16:40:38.666Z,100128.50
2019-02-08T16:42:45.028Z,100129.10
2019-02-08T16:44:51.254Z,100124.11
2019-02-08T16:46:57.615Z,100122.27
2019-02-08T16:49:03.982Z,100122.94
2019-02-08T16:51:10.280Z,100119.05
2019-02-08T16:53:16.685Z,100121.03
2019-02-08T16:55:23.651Z,100127.73
2019-02-08T16:57:30.144Z,100125.52
2019-02-08T16:59:36.391Z,100128.98
2019-02-08T17:01:42.672Z,100130.83
2019-02-08T17:03:49.328Z,100127.28
2019-02-08T17:05:55.734Z,100127.61
2019-02-08T17:08:05.090Z,100126.42
2019-02-08T17:10:15.800Z,100126.66
2019-02-08T17:12:22.114Z,100128.02
2019-02-08T17:14:28.403Z,100127.09
2019-02-08T17:16:34.894Z,100131.77
2019-02-08T17:18:41.313Z,100131.42
2019-02-08T17:20:49.971Z,100129.64
2019-02-08T17:22:58.061Z,100129.71
2019-02-08T17:25:05.244Z,100122.81
2019-02-08T17:27:11.638Z,100129.27
2019-02-08T17:29:18.104Z,100127.44
2019-02-08T17:31:24.370Z,100122.61
2019-02-08T17:33:30.683Z,100123.13
2019-02-08T17:35:36.903Z,100124.19
2019-02-08T17:37:44.879Z,100125.97
2019-02-08T17:39:51.172Z,100123.88
2019-02-08T17:41:57.472Z,100122.51
2019-02-08T17:44:03.861Z,100121.38
2019-02-08T17:46:10.259Z,100126.52
2019-02-08T17:48:17.203Z,100124.09
2019-02-08T17:50:27.859Z,100128.68
2019-02-08T17:52:34.241Z,100122.47
2019-02-08T17:54:40.606Z,100124.70
2019-02-08T17:57:19.289Z,100124.73
2019-02-08T18:02:09.515Z,100125.83
2019-02-08T18:04:16.106Z,100111.98
2019-02-08T18:06:22.632Z,100121.45
2019-02-08T18:08:29.030Z,100127.45
2019-02-08T18:10:35.423Z,100124.19
2019-02-08T18:12:41.653Z,100121.72
2019-02-08T18:14:48.390Z,100125.73
2019-02-08T18:16:56.406Z,100119.28
2019-02-08T18:19:02.842Z,100120.83
2019-02-08T18:21:09.338Z,100129.32
2019-02-08T18:23:15.890Z,100124.02
2019-02-08T18:25:24.091Z,100126.76
2019-02-08T18:27:30.645Z,100131.59
2019-02-08T18:29:37.233Z,100143.62
2019-02-08T18:31:43.544Z,100132.55
2019-02-08T18:33:49.846Z,100141.77
2019-02-08T18:35:57.283Z,100137.20
2019-02-08T18:38:03.755Z,100136.56
2019-02-08T18:40:17.385Z,100133.96
2019-02-08T18:42:23.871Z,100131.19
2019-02-08T18:44:30.229Z,100132.14
2019-02-08T18:46:36.586Z,100132.97
2019-02-08T18:48:43.216Z,100141.77
2019-02-08T18:50:53.344Z,100143.02
2019-02-08T18:52:59.847Z,100142.69
2019-02-08T18:55:06.612Z,100139.82
2019-02-08T18:57:13.467Z,100142.11
2019-02-08T18:59:19.854Z,100143.77
2019-02-08T19:01:26.345Z,100148.20
2019-02-08T19:03:33.365Z,100147.75
2019-02-08T19:05:39.826Z,100144.73
2019-02-08T19:07:46.416Z,100145.11
2019-02-08T19:09:52.793Z,100146.36
2019-02-08T19:11:59.761Z,100144.58
2019-02-08T19:14:06.289Z,100149.63
2019-02-08T19:16:12.734Z,100141.47
2019-02-08T19:18:19.126Z,100144.36
2019-02-08T19:20:28.682Z,100137.38
2019-02-08T19:22:36.154Z,100140.12
2019-02-08T19:24:42.459Z,100136.27
2019-02-08T19:26:48.893Z,100141.38
2019-02-08T19:28:55.112Z,100146.92
2019-02-08T19:31:01.515Z,100146.59
2019-02-08T19:33:08.107Z,100140.72
2019-02-08T19:35:17.469Z,100138.11
2019-02-08T19:37:23.711Z,100139.91
2019-02-08T19:39:31.471Z,100134.57
2019-02-08T19:41:37.842Z,100133.33
2019-02-08T19:43:44.262Z,100138.39
2019-02-08T19:45:50.669Z,100130.73
2019-02-08T19:47:58.563Z,100133.52
2019-02-08T19:50:09.781Z,100136.00
2019-02-08T19:52:19.109Z,100130.66
2019-02-08T19:54:26.740Z,100129.62
2019-02-08T19:56:33.825Z,100121.38
2019-02-08T19:58:40.304Z,100120.93
2019-02-08T20:00:46.903Z,100121.67
2019-02-08T20:02:53.386Z,100123.68
2019-02-08T20:04:59.927Z,100125.19
2019-02-08T20:07:08.666Z,100125.05
2019-02-08T20:09:14.975Z,100117.38
2019-02-08T20:11:21.486Z,100115.05
2019-02-08T20:13:29.091Z,100114.22
2019-02-08T20:15:35.535Z,100112.56
2019-02-08T20:17:41.994Z,100113.88
2019-02-08T20:19:48.427Z,100117.52
2019-02-08T20:21:56.071Z,100113.47
2019-02-08T20:24:02.451Z,100119.14
2019-02-08T20:26:08.838Z,100119.58
2019-02-08T20:28:15.192Z,100115.19
2019-02-08T20:30:27.811Z,100115.53
2019-02-08T20:32:35.052Z,100106.02
2019-02-08T20:34:41.419Z,100106.84
2019-02-08T20:36:47.832Z,100107.85
2019-02-08T20:38:56.465Z,100110.59
2019-02-08T20:41:07.612Z,100107.56
2019-02-08T20:43:13.936Z,100110.03
2019-02-08T20:45:24.166Z,100111.28
2019-02-08T20:47:31.721Z,100111.41
2019-02-08T20:49:38.132Z,100109.42
2019-02-08T20:51:44.484Z,100109.91
2019-02-08T20:53:50.872Z,100113.41
2019-02-08T20:55:58.334Z,100110.33
2019-02-08T20:58:06.099Z,100111.61
2019-02-08T21:00:36.445Z,100105.92
2019-02-08T21:02:43.122Z,100110.16
2019-02-08T21:04:52.246Z,100113.17
2019-02-08T21:06:57.775Z,100114.31
2019-02-08T21:09:05.394Z,100116.85
2019-02-08T21:11:14.192Z,100114.25
2019-02-08T21:13:20.586Z,100112.88
2019-02-08T21:15:30.141Z,100111.53
2019-02-08T21:17:36.420Z,100103.88
2019-02-08T21:19:43.846Z,100102.27
2019-02-08T21:21:51.847Z,100106.28
2019-02-08T21:24:01.811Z,100098.16
2019-02-08T21:26:08.185Z,100094.27
2019-02-08T21:28:14.590Z,100097.75
2019-02-08T21:30:20.902Z,100094.32
2019-02-08T21:32:28.315Z,100096.28
2019-02-08T21:34:34.705Z,100088.06
2019-02-08T21:36:41.179Z,100090.59
2019-02-08T21:38:47.628Z,100082.41
2019-02-08T21:40:54.029Z,100084.48
2019-02-08T21:43:02.022Z,100083.78
2019-02-08T21:45:24.813Z,100083.84
2019-02-08T21:47:31.200Z,100076.94
2019-02-08T21:49:39.454Z,100084.50
2019-02-08T21:51:47.458Z,100086.50
2019-02-08T21:53:53.855Z,100083.77
2019-02-08T21:56:00.220Z,100079.87
2019-02-08T21:58:06.957Z,100084.64
2019-02-08T22:00:22.406Z,100082.23
2019-02-08T22:02:29.219Z,100075.56
2019-02-08T22:04:35.640Z,100081.71
2019-02-08T22:06:42.039Z,100076.52
2019-02-08T22:08:48.501Z,100078.88
2019-02-08T22:10:54.884Z,100080.69
2019-02-08T22:13:03.083Z,100077.50
2019-02-08T22:15:18.597Z,100074.02
2019-02-08T22:17:24.883Z,100074.80
2019-02-08T22:19:31.282Z,100076.38
2019-02-08T22:21:37.654Z,100073.45
2019-02-08T22:23:44.951Z,100074.02
2019-02-08T22:25:51.347Z,100076.96
2019-02-08T22:27:57.786Z,100081.32
2019-02-08T22:30:06.334Z,100076.61
2019-02-08T22:32:12.755Z,100078.63
2019-02-08T22:34:20.749Z,100076.18
2019-02-08T22:36:27.067Z,100074.72
2019-02-08T22:38:34.961Z,100075.08
2019-02-08T22:40:41.226Z,100070.69
2019-02-08T22:42:47.563Z,100075.03
2019-02-08T22:44:53.961Z,100077.19
2019-02-08T22:47:00.177Z,100074.75
2019-02-08T22:49:06.486Z,100072.15
2019-02-08T22:51:12.996Z,100072.23
2019-02-08T22:53:19.361Z,100067.82
2019-02-08T22:55:28.838Z,100065.98
2019-02-08T22:57:35.096Z,100063.46
2019-02-08T22:59:41.525Z,100060.53
2019-02-08T23:01:47.937Z,100054.94
2019-02-08T23:03:54.439Z,100060.05
2019-02-08T23:06:02.419Z,100061.34
2019-02-08T23:08:09.668Z,100054.03
2019-02-08T23:10:16.136Z,100052.66
2019-02-08T23:12:23.773Z,100048.50
2019-02-08T23:14:30.277Z,100045.42
2019-02-08T23:16:37.223Z,100050.85
2019-02-08T23:18:44.627Z,100046.63
2019-02-08T23:20:50.932Z,100048.02
2019-02-08T23:22:57.185Z,100047.27
2019-02-08T23:25:03.814Z,100044.45
2019-02-08T23:27:10.044Z,100039.10
2019-02-08T23:29:16.290Z,100040.57
2019-02-08T23:31:22.535Z,100034.52
2019-02-08T23:33:28.870Z,100032.02
2019-02-08T23:35:41.823Z,100033.24
2019-02-08T23:37:43.003Z,100028.62
2019-02-08T23:39:49.346Z,100027.23
2019-02-08T23:41:55.640Z,100019.69
2019-02-08T23:44:02.031Z,100021.78
2019-02-08T23:46:08.316Z,100022.09
2019-02-08T23:48:14.570Z,100016.60
2019-02-08T23:50:23.609Z,100014.73
2019-02-08T23:52:29.971Z,100013.34
2019-02-08T23:54:36.165Z,100013.97
2019-02-08T23:56:42.401Z,100008.56
2019-02-08T23:58:48.556Z,100004.73
